createdAt,value
2023-05-05T00:00:07.556Z,20.30
2023-05-05T00:02:43.256Z,19.60
2023-05-05T00:05:18.364Z,23.00
2023-05-05T00:08:00.015Z,19.00
2023-05-05T00:10:42.561Z,17.80
2023-05-05T00:13:23.731Z,16.70
2023-05-05T00:15:57.122Z,17.50
2023-05-05T00:18:56.590Z,16.60
2023-05-05T00:21:45.022Z,13.50
2023-05-05T00:24:18.809Z,18.30
2023-05-05T00:26:51.441Z,17.20
2023-05-05T00:29:27.977Z,19.50
2023-05-05T00:32:08.217Z,18.90
2023-05-05T00:34:41.208Z,19.90
2023-05-05T00:37:15.907Z,16.50
2023-05-05T00:42:41.213Z,15.40
2023-05-05T00:45:26.913Z,18.50
2023-05-05T00:48:05.678Z,18.10
2023-05-05T00:50:52.655Z,16.50
2023-05-05T00:53:30.231Z,18.60
2023-05-05T00:56:24.086Z,17.80
2023-05-05T00:58:59.463Z,18.40
2023-05-05T01:01:44.358Z,17.70
2023-05-05T01:04:19.288Z,18.30
2023-05-05T01:07:03.282Z,15.00
2023-05-05T01:09:43.850Z,16.10
2023-05-05T01:12:30.658Z,13.90
2023-05-05T01:15:19.104Z,17.00
2023-05-05T01:18:10.521Z,15.40
2023-05-05T01:21:00.276Z,15.60
2023-05-05T01:24:01.263Z,18.10
2023-05-05T01:27:01.997Z,18.20
2023-05-05T01:30:20.855Z,14.10
2023-05-05T01:32:59.091Z,15.10
2023-05-05T01:35:45.402Z,14.10
2023-05-05T01:38:34.489Z,16.30
2023-05-05T01:41:40.392Z,15.80
2023-05-05T01:47:08.987Z,17.80
2023-05-05T01:49:47.008Z,15.60
2023-05-05T01:52:27.873Z,14.90
2023-05-05T01:55:11.808Z,16.10
2023-05-05T01:58:01.310Z,14.60
2023-05-05T02:00:36.522Z,14.00
2023-05-05T02:03:13.983Z,13.10
2023-05-05T02:05:56.860Z,15.40
2023-05-05T02:08:30.469Z,14.70
2023-05-05T02:11:05.363Z,12.20
2023-05-05T02:13:41.833Z,13.90
2023-05-05T02:16:14.839Z,15.00
2023-05-05T02:18:48.944Z,13.40
2023-05-05T02:21:26.098Z,14.60
2023-05-05T02:24:05.152Z,12.40
2023-05-05T02:26:46.251Z,17.80
2023-05-05T02:29:27.978Z,15.30
2023-05-05T02:32:27.447Z,13.90
2023-05-05T02:35:04.841Z,13.90
2023-05-05T02:37:47.938Z,14.00
2023-05-05T02:40:26.898Z,12.90
2023-05-05T02:43:06.650Z,14.50
2023-05-05T02:45:40.288Z,16.00
2023-05-05T02:48:19.228Z,13.40
2023-05-05T02:50:50.860Z,16.10
2023-05-05T02:53:26.358Z,15.20
2023-05-05T02:56:09.601Z,13.60
2023-05-05T02:58:50.307Z,14.20
2023-05-05T03:01:42.095Z,15.00
2023-05-05T03:04:28.931Z,14.50
2023-05-05T03:07:11.030Z,14.70
2023-05-05T03:10:09.210Z,12.80
2023-05-05T03:13:06.910Z,15.30
2023-05-05T03:15:58.814Z,12.00
2023-05-05T03:18:42.055Z,15.80
2023-05-05T03:21:18.531Z,12.40
2023-05-05T03:25:02.417Z,16.80
2023-05-05T03:27:46.484Z,12.90
2023-05-05T03:30:37.022Z,17.80
2023-05-05T03:33:14.635Z,15.60
2023-05-05T03:35:48.272Z,14.10
2023-05-05T03:38:19.900Z,14.60
2023-05-05T03:40:51.695Z,12.50
2023-05-05T03:43:23.230Z,15.20
2023-05-05T03:45:54.968Z,16.10
2023-05-05T04:20:10.334Z,12.20
2023-05-05T04:23:10.909Z,13.00
2023-05-05T04:26:18.716Z,15.90
2023-05-05T04:32:33.047Z,21.00
2023-05-05T04:35:22.867Z,14.00
2023-05-05T04:38:16.571Z,15.10
2023-05-05T04:41:09.551Z,14.10
2023-05-05T04:44:00.168Z,14.40
2023-05-05T04:46:41.889Z,12.50
2023-05-05T04:49:18.770Z,12.50
2023-05-05T04:52:00.098Z,12.70
2023-05-05T04:54:46.237Z,11.70
2023-05-05T04:57:30.455Z,13.60
2023-05-05T05:00:20.196Z,11.60
2023-05-05T05:03:13.570Z,14.50
2023-05-05T05:06:04.998Z,16.00
2023-05-05T05:08:36.828Z,12.50
2023-05-05T05:11:14.335Z,13.10
2023-05-05T05:13:46.788Z,23.30
2023-05-05T05:16:18.615Z,14.10
2023-05-05T05:18:50.322Z,14.10
2023-05-05T05:21:25.644Z,13.80
2023-05-05T05:23:57.451Z,18.40
2023-05-05T05:26:29.290Z,16.40
2023-05-05T05:29:00.966Z,16.80
2023-05-05T05:31:34.798Z,13.60
2023-05-05T05:34:07.847Z,13.70
2023-05-05T05:36:39.525Z,16.20
2023-05-05T05:39:11.079Z,15.90
2023-05-05T05:41:42.561Z,15.90
2023-05-05T05:44:14.688Z,10.90
2023-05-05T05:46:46.314Z,11.60
2023-05-05T05:49:18.172Z,12.40
2023-05-05T05:51:51.208Z,10.50
2023-05-05T05:54:22.944Z,13.80
2023-05-05T05:56:54.540Z,13.70
2023-05-05T05:59:26.259Z,13.10
2023-05-05T06:01:59.500Z,11.50
2023-05-05T06:04:32.067Z,11.20
2023-05-05T06:07:03.738Z,12.50
2023-05-05T06:09:35.681Z,12.20
2023-05-05T06:12:08.676Z,18.20
2023-05-05T06:14:40.260Z,11.60
2023-05-05T06:17:13.462Z,10.00
2023-05-05T06:19:45.656Z,12.30
2023-05-05T06:22:17.178Z,11.20
2023-05-05T06:24:49.056Z,11.70
2023-05-05T06:27:20.759Z,18.30
2023-05-05T06:29:52.295Z,9.40
2023-05-05T06:32:25.374Z,9.30
2023-05-05T06:34:56.791Z,11.30
2023-05-05T06:37:28.753Z,10.40
2023-05-05T06:40:00.206Z,11.70
2023-05-05T06:42:32.586Z,9.20
2023-05-05T06:45:04.159Z,11.40
2023-05-05T06:47:36.667Z,12.50
2023-05-05T06:50:10.797Z,11.40
2023-05-05T06:52:42.856Z,14.80
2023-05-05T06:55:16.138Z,17.30
2023-05-05T06:57:48.637Z,10.20
2023-05-05T07:00:23.072Z,10.60
2023-05-05T07:02:54.830Z,9.80
2023-05-05T07:05:26.651Z,31.50
2023-05-05T07:07:59.101Z,9.50
2023-05-05T07:10:31.897Z,12.40
2023-05-05T07:13:03.473Z,39.70
2023-05-05T07:15:35.206Z,23.10
2023-05-05T07:18:07.181Z,12.30
2023-05-05T07:20:38.643Z,8.00
2023-05-05T07:23:10.274Z,9.40
2023-05-05T07:25:41.788Z,8.10
2023-05-05T07:28:13.553Z,7.90
2023-05-05T07:30:45.092Z,7.60
2023-05-05T07:33:18.846Z,9.10
2023-05-05T07:35:51.156Z,12.50
2023-05-05T07:38:22.750Z,8.60
2023-05-05T07:40:54.313Z,9.00
2023-05-05T07:43:26.222Z,6.20
2023-05-05T07:45:57.818Z,7.40
2023-05-05T07:48:30.336Z,5.20
2023-05-05T07:51:02.042Z,7.40
2023-05-05T07:53:33.633Z,6.40
2023-05-05T07:56:05.729Z,7.60
2023-05-05T07:58:37.439Z,9.50
2023-05-05T08:01:11.284Z,8.00
2023-05-05T08:03:43.090Z,4.50
2023-05-05T08:06:16.617Z,10.30
2023-05-05T08:08:48.313Z,6.30
2023-05-05T08:11:20.794Z,4.90
2023-05-05T08:13:52.227Z,11.30
2023-05-05T08:16:24.226Z,7.10
2023-05-05T08:18:55.822Z,9.10
2023-05-05T08:21:28.098Z,6.00
2023-05-05T08:23:59.537Z,11.50
2023-05-05T08:26:31.633Z,14.80
2023-05-05T08:29:03.296Z,7.10
2023-05-05T08:31:37.127Z,7.30
2023-05-05T08:34:09.748Z,5.70
2023-05-05T08:36:41.257Z,5.70
2023-05-05T08:39:12.965Z,6.80
2023-05-05T08:41:46.707Z,6.20
2023-05-05T08:44:19.506Z,6.80
2023-05-05T08:46:52.556Z,5.00
2023-05-05T08:49:27.608Z,6.20
2023-05-05T08:52:01.755Z,6.40
2023-05-05T08:54:36.170Z,5.90
2023-05-05T08:59:41.778Z,6.10
2023-05-05T09:02:14.871Z,7.10
2023-05-05T09:04:46.941Z,8.50
2023-05-05T09:07:18.927Z,6.50
2023-05-05T09:09:51.554Z,5.00
2023-05-05T09:12:24.831Z,5.50
2023-05-05T09:14:59.298Z,4.00
2023-05-05T09:17:32.046Z,6.50
2023-05-05T09:20:08.624Z,4.00
2023-05-05T09:22:42.530Z,6.00
2023-05-05T09:25:17.392Z,6.10
2023-05-05T09:27:50.852Z,4.90
2023-05-05T09:30:28.998Z,6.90
2023-05-05T09:33:02.445Z,4.70
2023-05-05T09:35:52.300Z,6.40
2023-05-05T09:38:26.110Z,4.00
2023-05-05T09:40:58.016Z,5.00
2023-05-05T09:43:30.031Z,3.90
2023-05-05T09:46:10.945Z,5.00
2023-05-05T09:48:42.854Z,5.90
2023-05-05T09:51:14.407Z,7.60
2023-05-05T09:53:46.248Z,11.00
2023-05-05T09:56:18.367Z,7.00
2023-05-05T09:58:50.067Z,8.60
2023-05-05T10:01:26.424Z,6.70
2023-05-05T10:03:57.978Z,5.30
2023-05-05T10:06:44.572Z,8.80
2023-05-05T10:09:16.982Z,6.10
2023-05-05T10:11:50.987Z,5.70
2023-05-05T10:14:23.932Z,7.80
2023-05-05T10:16:56.853Z,6.30
2023-05-05T10:19:32.813Z,7.10
2023-05-05T10:22:09.779Z,11.40
2023-05-05T10:24:47.448Z,7.00
2023-05-05T10:27:21.744Z,8.80
2023-05-05T10:29:57.349Z,6.30
2023-05-05T10:32:54.349Z,5.60
2023-05-05T10:35:28.045Z,7.20
2023-05-05T10:38:01.958Z,6.10
2023-05-05T10:40:34.303Z,6.80
2023-05-05T10:43:07.909Z,11.10
2023-05-05T10:45:41.639Z,7.70
2023-05-05T10:48:20.627Z,9.80
2023-05-05T10:50:57.050Z,5.50
2023-05-05T10:54:09.195Z,7.20
2023-05-05T10:57:03.062Z,10.10
2023-05-05T11:00:26.148Z,7.80
2023-05-05T11:03:37.506Z,6.70
2023-05-05T11:06:15.957Z,8.00
2023-05-05T11:09:18.814Z,5.30
2023-05-05T11:12:14.261Z,8.90
2023-05-05T11:14:48.002Z,7.90
2023-05-05T11:17:53.081Z,7.60
2023-05-05T11:21:15.832Z,7.00
2023-05-05T11:23:53.020Z,6.60
2023-05-05T11:26:54.148Z,6.10
2023-05-05T11:29:26.447Z,7.20
2023-05-05T11:32:17.356Z,9.50
2023-05-05T11:34:53.099Z,6.20
2023-05-05T11:37:26.830Z,6.60
2023-05-05T11:40:22.633Z,6.70
2023-05-05T11:43:08.042Z,6.40
2023-05-05T11:46:09.720Z,4.90
2023-05-05T11:48:53.188Z,9.00
2023-05-05T11:51:25.269Z,7.80
2023-05-05T11:53:58.507Z,8.10
2023-05-05T11:56:30.941Z,11.40
2023-05-05T11:59:12.453Z,7.30
2023-05-05T12:01:45.959Z,5.60
2023-05-05T12:04:19.009Z,5.60
2023-05-05T12:06:52.934Z,8.70
2023-05-05T12:09:26.963Z,8.80
2023-05-05T12:12:01.524Z,10.40
2023-05-05T12:17:08.553Z,10.20
2023-05-05T12:19:46.427Z,8.40
2023-05-05T12:22:24.833Z,8.70
2023-05-05T12:25:06.081Z,6.90
2023-05-05T12:27:39.121Z,5.20
2023-05-05T12:30:21.009Z,7.90
2023-05-05T12:33:01.928Z,6.40
2023-05-05T12:35:34.042Z,9.90
2023-05-05T12:38:06.367Z,7.50
2023-05-05T12:40:53.527Z,6.90
2023-05-05T12:43:32.967Z,8.90
2023-05-05T12:46:08.240Z,8.50
2023-05-05T12:48:41.968Z,10.70
2023-05-05T12:51:21.373Z,10.10
2023-05-05T12:54:07.550Z,7.20
2023-05-05T12:56:41.569Z,6.70
2023-05-05T12:59:14.742Z,8.50
2023-05-05T13:01:54.299Z,8.70
2023-05-05T13:04:27.606Z,10.80
2023-05-05T13:07:16.529Z,5.80
2023-05-05T13:09:49.651Z,6.10
2023-05-05T13:12:23.318Z,7.60
2023-05-05T13:14:57.055Z,7.90
2023-05-05T13:17:29.065Z,10.00
2023-05-05T13:20:01.949Z,6.20
2023-05-05T13:22:34.471Z,5.70
2023-05-05T13:25:07.655Z,5.60
2023-05-05T13:27:39.598Z,6.10
2023-05-05T13:30:23.029Z,10.70
2023-05-05T13:33:07.936Z,8.20
2023-05-05T13:35:39.922Z,5.10
2023-05-05T13:38:12.932Z,6.00
2023-05-05T13:40:45.598Z,6.60
2023-05-05T13:43:17.949Z,6.10
2023-05-05T13:45:49.878Z,4.80
2023-05-05T13:48:23.511Z,10.00
2023-05-05T13:50:56.526Z,6.50
2023-05-05T13:53:28.638Z,8.00
2023-05-05T13:56:01.167Z,7.80
2023-05-05T13:58:35.359Z,6.80
2023-05-05T14:01:08.260Z,11.70
2023-05-05T14:03:41.265Z,9.40
2023-05-05T14:06:13.592Z,11.30
2023-05-05T14:08:46.487Z,7.20
2023-05-05T14:11:18.652Z,5.50
2023-05-05T14:13:51.008Z,5.90
2023-05-05T14:16:23.084Z,7.50
2023-05-05T14:18:54.776Z,7.30
2023-05-05T14:21:27.884Z,5.90
2023-05-05T14:24:02.001Z,5.00
2023-05-05T14:26:34.138Z,6.60
2023-05-05T14:29:06.109Z,5.90
2023-05-05T14:31:39.407Z,8.60
2023-05-05T14:34:11.389Z,6.90
2023-05-05T14:36:44.612Z,6.80
2023-05-05T14:39:16.328Z,4.60
2023-05-05T14:41:48.747Z,8.80
2023-05-05T14:44:20.491Z,6.10
2023-05-05T14:46:52.936Z,5.90
2023-05-05T14:49:24.625Z,5.60
2023-05-05T14:51:56.946Z,6.20
2023-05-05T14:54:29.183Z,9.80
2023-05-05T14:57:01.213Z,7.60
2023-05-05T14:59:32.860Z,5.60
2023-05-05T15:02:04.588Z,6.90
2023-05-05T15:04:36.265Z,6.50
2023-05-05T15:07:07.868Z,5.50
2023-05-05T15:09:39.919Z,6.30
2023-05-05T15:12:12.076Z,7.80
2023-05-05T15:14:43.808Z,9.10
2023-05-05T15:17:15.477Z,6.20
2023-05-05T15:19:47.048Z,7.40
2023-05-05T15:22:18.845Z,7.00
2023-05-05T15:24:51.040Z,8.70
2023-05-05T15:27:25.048Z,5.50
2023-05-05T15:29:57.986Z,6.10
2023-05-05T15:32:30.958Z,9.20
2023-05-05T15:35:02.806Z,4.60
2023-05-05T15:37:34.765Z,7.10
2023-05-05T15:40:07.326Z,6.30
2023-05-05T15:42:39.395Z,9.50
2023-05-05T15:45:15.293Z,4.70
2023-05-05T15:47:48.189Z,6.00
2023-05-05T15:50:20.563Z,6.80
2023-05-05T15:52:52.227Z,5.90
2023-05-05T15:55:24.163Z,5.40
2023-05-05T15:57:55.953Z,10.60
2023-05-05T16:00:28.427Z,6.40
2023-05-05T16:03:00.300Z,6.70
2023-05-05T16:05:32.514Z,9.70
2023-05-05T16:08:09.919Z,5.40
2023-05-05T16:10:42.115Z,4.10
2023-05-05T16:13:14.319Z,5.40
2023-05-05T16:15:46.633Z,4.00
2023-05-05T16:18:18.358Z,6.70
2023-05-05T16:20:50.205Z,4.40
2023-05-05T16:23:24.663Z,4.30
2023-05-05T16:25:58.963Z,8.00
2023-05-05T16:28:31.298Z,7.20
2023-05-05T16:31:02.774Z,8.20
2023-05-05T16:33:36.322Z,4.00
2023-05-05T16:36:08.784Z,5.60
2023-05-05T16:38:41.646Z,7.90
2023-05-05T16:41:14.232Z,5.70
2023-05-05T16:43:46.585Z,7.90
2023-05-05T16:46:18.608Z,6.40
2023-05-05T16:48:50.233Z,7.90
2023-05-05T16:51:23.407Z,6.00
2023-05-05T16:53:55.346Z,8.60
2023-05-05T16:56:26.960Z,7.30
2023-05-05T16:58:58.555Z,12.40
2023-05-05T17:01:30.601Z,8.20
2023-05-05T17:04:02.924Z,4.60
2023-05-05T17:06:37.728Z,6.80
2023-05-05T17:09:09.461Z,5.80
2023-05-05T17:11:41.060Z,7.60
2023-05-05T17:14:12.503Z,4.60
2023-05-05T17:16:44.593Z,6.20
2023-05-05T17:19:16.220Z,5.10
2023-05-05T17:21:48.000Z,4.90
2023-05-05T17:24:19.645Z,6.10
2023-05-05T17:26:51.815Z,7.60
2023-05-05T17:29:23.684Z,8.90
2023-05-05T17:31:58.093Z,9.80
2023-05-05T17:34:30.232Z,6.00
2023-05-05T17:37:02.534Z,4.70
2023-05-05T17:39:36.177Z,6.10
2023-05-05T17:42:10.248Z,6.00
2023-05-05T17:44:42.322Z,10.40
2023-05-05T17:47:14.001Z,7.00
2023-05-05T17:49:46.454Z,6.20
2023-05-05T17:52:19.467Z,4.80
2023-05-05T17:54:52.518Z,6.50
2023-05-05T17:57:25.797Z,6.20
2023-05-05T17:59:57.432Z,6.70
2023-05-05T18:02:30.477Z,5.20
2023-05-05T18:05:02.327Z,7.90
2023-05-05T18:07:36.679Z,5.30
2023-05-05T18:10:13.482Z,6.20
2023-05-05T18:12:53.627Z,5.60
2023-05-05T18:15:26.483Z,6.20
2023-05-05T18:17:58.495Z,9.60
2023-05-05T18:20:31.610Z,7.70
2023-05-05T18:23:03.311Z,8.80
2023-05-05T18:25:35.762Z,10.20
2023-05-05T18:28:11.075Z,9.90
2023-05-05T18:30:44.057Z,7.70
2023-05-05T18:33:16.421Z,10.10
2023-05-05T18:35:54.749Z,10.10
2023-05-05T18:38:26.473Z,11.40
2023-05-05T18:41:00.201Z,6.80
2023-05-05T18:43:33.086Z,7.30
2023-05-05T18:46:07.302Z,10.40
2023-05-05T18:48:42.939Z,10.00
2023-05-05T18:51:14.956Z,11.20
2023-05-05T18:53:46.690Z,9.60
2023-05-05T18:56:19.576Z,10.20
2023-05-05T18:58:51.325Z,11.40
2023-05-05T19:01:23.720Z,8.90
2023-05-05T19:03:55.361Z,10.70
2023-05-05T19:06:27.664Z,11.10
2023-05-05T19:09:00.413Z,10.80
2023-05-05T19:11:32.067Z,10.10
2023-05-05T19:14:03.731Z,11.50
2023-05-05T19:16:35.461Z,11.30
2023-05-05T19:19:08.111Z,10.80
2023-05-05T19:21:40.080Z,11.00
2023-05-05T19:24:12.047Z,10.50
2023-05-05T19:26:44.396Z,10.90
2023-05-05T19:29:16.542Z,16.10
2023-05-05T19:31:49.993Z,18.40
2023-05-05T19:34:22.027Z,16.40
2023-05-05T19:36:53.883Z,10.30
2023-05-05T19:39:25.708Z,11.90
2023-05-05T19:41:57.636Z,10.70
2023-05-05T19:44:29.338Z,9.40
2023-05-05T19:47:01.231Z,9.90
2023-05-05T19:49:33.192Z,7.80
2023-05-05T19:52:07.969Z,8.60
2023-05-05T19:57:09.852Z,6.10
2023-05-05T19:59:42.150Z,8.00
2023-05-05T20:02:15.615Z,7.80
2023-05-05T20:04:47.755Z,7.10
2023-05-05T20:07:22.434Z,6.20
2023-05-05T20:09:55.989Z,6.40
2023-05-05T20:12:28.907Z,10.90
2023-05-05T20:15:01.158Z,7.70
2023-05-05T20:17:33.343Z,8.00
2023-05-05T20:20:05.510Z,9.30
2023-05-05T20:22:40.607Z,7.30
2023-05-05T20:25:13.285Z,7.60
2023-05-05T20:27:46.351Z,6.90
2023-05-05T20:30:18.504Z,10.40
2023-05-05T20:32:50.309Z,7.30
2023-05-05T20:35:22.677Z,6.90
2023-05-05T20:37:54.536Z,5.70
2023-05-05T20:40:26.602Z,6.70
2023-05-05T20:43:00.000Z,5.70
2023-05-05T20:45:35.290Z,8.90
2023-05-05T20:48:10.270Z,8.90
2023-05-05T20:50:42.965Z,8.00
2023-05-05T20:53:15.447Z,7.30
2023-05-05T20:55:48.100Z,6.90
2023-05-05T20:58:20.407Z,7.70
2023-05-05T21:00:52.727Z,6.80
2023-05-05T21:03:24.580Z,7.40
2023-05-05T21:05:56.410Z,6.10
2023-05-05T21:08:29.420Z,9.30
2023-05-05T21:11:01.094Z,6.40
2023-05-05T21:13:32.851Z,8.00
2023-05-05T21:16:05.143Z,7.20
2023-05-05T21:18:37.849Z,8.70
2023-05-05T21:21:11.028Z,8.50
2023-05-05T21:23:44.284Z,7.10
2023-05-05T21:26:16.087Z,8.10
2023-05-05T21:28:48.236Z,9.00
2023-05-05T21:31:22.435Z,8.90
2023-05-05T21:33:54.581Z,10.50
2023-05-05T21:36:27.714Z,6.50
2023-05-05T21:39:00.432Z,6.50
2023-05-05T21:41:32.231Z,7.50
2023-05-05T21:44:04.103Z,6.60
2023-05-05T21:46:35.814Z,8.10
2023-05-05T21:49:15.216Z,8.00
2023-05-05T21:51:47.435Z,7.00
2023-05-05T21:54:19.707Z,7.00
2023-05-05T21:56:52.261Z,8.30
2023-05-05T21:59:23.721Z,7.00
2023-05-05T22:01:55.626Z,6.00
2023-05-05T22:04:28.080Z,8.70
2023-05-05T22:06:59.902Z,9.00
2023-05-05T22:09:31.603Z,7.40
2023-05-05T22:12:04.130Z,10.60
2023-05-05T22:14:36.143Z,9.40
2023-05-05T22:17:07.748Z,8.10
2023-05-05T22:19:39.681Z,7.60
2023-05-05T22:22:11.730Z,7.70
2023-05-05T22:24:49.015Z,9.30
2023-05-05T22:27:20.977Z,6.90
2023-05-05T22:30:02.128Z,7.20
2023-05-05T22:32:38.289Z,6.00
2023-05-05T22:35:12.402Z,5.90
2023-05-05T22:37:44.654Z,9.90
2023-05-05T22:40:17.246Z,7.90
2023-05-05T22:42:48.967Z,8.30
2023-05-05T22:45:21.176Z,6.70
2023-05-05T22:47:53.057Z,7.80
2023-05-05T22:50:24.730Z,8.20
2023-05-05T22:52:56.385Z,8.40
2023-05-05T22:55:27.957Z,9.00
2023-05-05T22:58:00.615Z,10.20
2023-05-05T23:00:32.925Z,7.60
2023-05-05T23:03:05.345Z,7.50
2023-05-05T23:05:36.965Z,6.80
2023-05-05T23:08:08.844Z,8.30
2023-05-05T23:10:40.621Z,7.70
2023-05-05T23:13:15.842Z,7.70
2023-05-05T23:15:53.994Z,9.60
2023-05-05T23:18:29.079Z,7.10
2023-05-05T23:21:03.761Z,8.50
2023-05-05T23:23:37.394Z,8.90
2023-05-05T23:26:12.961Z,5.90
2023-05-05T23:28:46.530Z,8.70
2023-05-05T23:31:24.798Z,7.60
2023-05-05T23:33:58.566Z,9.00
2023-05-05T23:36:31.917Z,11.80
2023-05-05T23:39:04.094Z,10.70
2023-05-05T23:41:35.773Z,6.90
2023-05-05T23:44:08.226Z,6.10
2023-05-05T23:46:40.073Z,6.50
2023-05-05T23:49:12.149Z,8.50
2023-05-05T23:51:43.767Z,7.70
2023-05-05T23:54:16.071Z,7.30
2023-05-05T23:56:49.106Z,9.80
2023-05-05T23:59:21.003Z,8.00
